Time;durP1;ratioP1;P1;durP2;ratioP2;P2;SDS_P1;SDS_P2;PMS_P1;PMS_P2;Temp;Humidity;BMP_temperature;BMP_pressure;BME280_temperature;BME280_humidity;BME280_pressure;Samples;Min_cycle;Max_cycle;Signal;HPM_P1;HPM_P2
2022/09/25 00:00:41;;;;;;;8.48;4.43;;;;;;;11.71;100.00;100505.28;5113078;28;20112;-76
2022/09/25 00:03:07;;;;;;;7.28;4.60;;;;;;;12.32;100.00;100568.31;5113173;28;20498;-75
2022/09/25 00:05:35;;;;;;;7.40;4.90;;;;;;;12.09;100.00;100563.81;5112870;28;20494;-75
2022/09/25 00:08:01;;;;;;;7.25;5.13;;;;;;;11.55;100.00;100492.94;5094342;28;20050;-75
2022/09/25 00:10:28;;;;;;;5.93;5.10;;;;;;;11.91;100.00;100509.91;5112397;28;20031;-75
2022/09/25 00:12:54;;;;;;;6.80;5.32;;;;;;;12.20;100.00;100564.34;5094618;28;20038;-75
2022/09/25 00:15:19;;;;;;;6.60;5.05;;;;;;;11.91;100.00;100487.81;5112691;28;20549;-74
2022/09/25 00:17:44;;;;;;;7.15;4.95;;;;;;;12.20;100.00;100546.50;5112278;28;20023;-75
2022/09/25 00:20:10;;;;;;;7.32;5.15;;;;;;;11.47;100.00;100470.19;5113046;28;20103;-75
2022/09/25 00:22:35;;;;;;;7.13;4.68;;;;;;;11.62;100.00;100485.13;5112575;28;20031;-75
2022/09/25 00:25:02;;;;;;;7.28;5.30;;;;;;;12.10;100.00;100544.25;5112169;28;20035;-74
2022/09/25 00:27:27;;;;;;;5.85;4.50;;;;;;;11.60;100.00;100476.69;5112238;28;20088;-75
2022/09/25 00:29:53;;;;;;;6.68;4.93;;;;;;;11.55;100.00;100493.75;5112435;28;20028;-74
2022/09/25 00:32:18;;;;;;;6.75;4.72;;;;;;;12.06;100.00;100537.56;5114215;28;20470;-75
2022/09/25 00:34:44;;;;;;;6.95;4.30;;;;;;;11.47;100.00;100465.09;5097853;28;20387;-76
2022/09/25 00:37:09;;;;;;;6.85;4.50;;;;;;;11.98;100.00;100539.47;5098347;28;20088;-76
2022/09/25 00:39:35;;;;;;;8.75;4.13;;;;;;;12.16;100.00;100544.09;5116065;28;20088;-77
2022/09/25 00:42:00;;;;;;;5.82;4.10;;;;;;;11.38;100.00;100478.06;5116641;28;20530;-78
2022/09/25 00:45:03;;;;;;;6.43;4.00;;;;;;;11.85;100.00;100533.81;5116529;28;20081;-75
2022/09/25 00:47:53;;;;;;;5.10;4.32;;;;;;;12.19;100.00;100526.16;5116549;28;20027;-76
2022/09/25 00:50:21;;;;;;;5.43;4.57;;;;;;;11.57;100.00;100478.47;5116102;28;20500;-75
2022/09/25 00:52:48;;;;;;;8.05;4.63;;;;;;;11.95;100.00;100535.28;5098258;28;20050;-76
2022/09/25 00:55:14;;;;;;;4.95;4.10;;;;;;;12.16;100.00;100532.19;5117389;28;20474;-80
2022/09/25 00:57:45;;;;;;;6.60;4.68;;;;;;;11.34;100.00;100445.91;5116276;28;20027;-81
2022/09/25 01:00:12;;;;;;;5.82;4.32;;;;;;;11.57;100.00;100504.75;5116789;28;20059;-82
2022/09/25 01:02:43;;;;;;;6.40;4.55;;;;;;;11.99;100.00;100534.31;5116240;28;20249;-79
2022/09/25 01:05:13;;;;;;;5.13;4.30;;;;;;;11.74;100.00;100454.28;5116327;28;20474;-82
2022/09/25 01:07:42;;;;;;;7.13;4.32;;;;;;;11.43;100.00;100467.78;5115817;28;20036;-77
2022/09/25 01:10:09;;;;;;;4.88;4.38;;;;;;;11.54;100.00;100515.03;5116434;28;20043;-77
2022/09/25 01:12:37;;;;;;;6.93;4.22;;;;;;;11.65;100.00;100525.78;5097772;28;20060;-78
2022/09/25 01:15:06;;;;;;;7.25;4.40;;;;;;;11.71;100.00;100518.03;5115854;28;20043;-78
2022/09/25 01:17:43;;;;;;;4.45;4.05;;;;;;;11.67;100.00;100511.34;5115803;28;20461;-78
2022/09/25 01:20:35;;;;;;;6.18;4.53;;;;;;;11.82;100.00;100510.13;5116127;28;20537;-78
2022/09/25 01:23:38;;;;;;;5.40;4.32;;;;;;;11.63;100.00;100519.03;5097302;28;20471;-77
2022/09/25 01:26:19;;;;;;;6.55;4.97;;;;;;;11.60;100.00;100525.06;5116064;28;20572;-79
2022/09/25 01:29:11;;;;;;;5.05;4.55;;;;;;;11.87;100.00;100521.88;5115654;28;20102;-77
2022/09/25 01:31:54;;;;;;;6.07;4.70;;;;;;;11.52;100.00;100457.34;5115355;28;20390;-77
2022/09/25 01:34:35;;;;;;;6.22;4.78;;;;;;;11.61;100.00;100536.91;5115501;28;20047;-76
2022/09/25 01:37:08;;;;;;;5.95;4.60;;;;;;;11.54;100.00;100511.63;5115490;28;20024;-77
2022/09/25 01:40:32;;;;;;;6.28;4.90;;;;;;;11.90;100.00;100537.09;5096891;28;20027;-77
2022/09/25 01:43:00;;;;;;;6.75;4.82;;;;;;;11.72;100.00;100540.09;5084212;28;20035;-78
2022/09/25 01:45:41;;;;;;;6.45;4.78;;;;;;;11.56;100.00;100533.66;5114553;28;20069;-75
2022/09/25 01:48:09;;;;;;;7.18;5.20;;;;;;;11.62;100.00;100513.13;5114623;28;20031;-75
2022/09/25 01:50:43;;;;;;;6.53;4.78;;;;;;;11.61;100.00;100519.09;5114604;28;20043;-74
2022/09/25 01:53:15;;;;;;;5.28;4.70;;;;;;;11.44;100.00;100503.38;5115295;28;20023;-75
2022/09/25 01:55:49;;;;;;;7.22;5.20;;;;;;;11.27;100.00;100449.44;5096583;28;20382;-74
2022/09/25 01:58:26;;;;;;;7.50;5.35;;;;;;;11.48;100.00;100473.56;5114609;28;20035;-75
2022/09/25 02:00:58;;;;;;;5.85;4.90;;;;;;;11.52;100.00;100460.75;5096924;28;20027;-75
2022/09/25 02:03:29;;;;;;;5.35;4.18;;;;;;;11.45;100.00;100494.03;5114727;28;20027;-75
2022/09/25 02:06:04;;;;;;;5.72;4.90;;;;;;;11.04;100.00;100464.41;5096414;28;20581;-75
2022/09/25 02:08:45;;;;;;;6.43;4.72;;;;;;;11.38;100.00;100513.69;5095955;28;20544;-76
2022/09/25 02:11:11;;;;;;;5.05;4.40;;;;;;;10.98;100.00;100462.84;5114150;28;20128;-75
2022/09/25 02:13:46;;;;;;;7.50;4.00;;;;;;;11.54;100.00;100537.09;5113784;28;20023;-74
2022/09/25 02:16:18;;;;;;;4.95;4.28;;;;;;;11.10;100.00;100466.81;5114344;28;20059;-75
2022/09/25 02:21:55;;;;;;;6.03;4.22;;;;;;;11.10;100.00;100464.28;5113804;28;20108;-75
2022/09/25 02:24:28;;;;;;;7.30;4.50;;;;;;;10.84;100.00;100467.38;5114763;28;20031;-75
2022/09/25 02:26:55;;;;;;;6.30;4.07;;;;;;;10.77;100.00;100457.38;5095779;28;20032;-76
2022/09/25 02:29:20;;;;;;;4.05;3.65;;;;;;;11.31;100.00;100509.59;5114425;28;20059;-74
2022/09/25 02:32:01;;;;;;;4.00;3.60;;;;;;;11.42;100.00;100550.09;5114144;28;20119;-75
2022/09/25 02:34:27;;;;;;;5.57;3.88;;;;;;;11.50;100.00;100550.75;5113849;28;20221;-76
2022/09/25 02:36:52;;;;;;;4.50;4.10;;;;;;;11.55;100.00;100547.22;5113293;28;20421;-77
2022/09/25 02:39:21;;;;;;;4.82;4.22;;;;;;;11.32;100.00;100540.13;5113646;28;20039;-76
2022/09/25 02:42:02;;;;;;;4.40;3.70;;;;;;;11.35;100.00;100555.31;5113567;28;20028;-76
2022/09/25 02:44:33;;;;;;;4.70;4.18;;;;;;;11.33;100.00;100546.88;5113824;28;20032;-76
2022/09/25 02:47:11;;;;;;;5.18;4.47;;;;;;;11.30;100.00;100541.88;5095575;28;20035;-75
2022/09/25 02:49:58;;;;;;;4.85;4.28;;;;;;;11.34;100.00;100545.19;5113601;28;20034;-79
2022/09/25 02:52:42;;;;;;;5.30;4.80;;;;;;;11.13;100.00;100550.75;5113904;28;20031;-76
2022/09/25 02:55:18;;;;;;;6.32;5.05;;;;;;;10.44;100.00;100484.31;5113392;28;20028;-75
2022/09/25 02:58:11;;;;;;;7.88;5.25;;;;;;;11.05;100.00;100561.06;5095629;28;20031;-78
2022/09/25 03:00:38;;;;;;;6.85;5.10;;;;;;;10.72;100.00;100490.53;5112362;28;20108;-74
2022/09/25 03:03:07;;;;;;;6.65;5.15;;;;;;;11.01;100.00;100568.81;5112954;28;20547;-74
2022/09/25 03:05:33;;;;;;;8.13;5.38;;;;;;;10.58;100.00;100550.16;5094212;28;20142;-76
2022/09/25 03:10:45;;;;;;;8.45;6.07;;;;;;;10.62;100.00;100565.31;5112891;28;20085;-74
2022/09/25 03:13:20;;;;;;;9.60;6.72;;;;;;;10.44;100.00;100558.03;5113012;28;20027;-75
2022/09/25 03:15:52;;;;;;;8.50;6.15;;;;;;;10.12;100.00;100441.72;5113687;28;20482;-75
2022/09/25 03:18:17;;;;;;;10.55;6.30;;;;;;;10.57;100.00;100556.09;5113234;28;20027;-75
2022/09/25 03:20:43;;;;;;;8.57;6.18;;;;;;;10.11;100.00;100556.06;5095294;28;20343;-75
2022/09/25 03:23:10;;;;;;;9.75;6.22;;;;;;;10.12;100.00;100512.84;5113097;28;20482;-77
2022/09/25 03:25:36;;;;;;;7.35;6.65;;;;;;;10.04;100.00;100550.22;5113280;28;20024;-79
2022/09/25 03:28:02;;;;;;;7.75;6.07;;;;;;;10.53;100.00;100555.31;5095257;28;20062;-79
2022/09/25 03:30:28;;;;;;;8.05;6.38;;;;;;;9.56;100.00;100492.63;5095095;28;20114;-76
2022/09/25 03:32:53;;;;;;;6.72;6.03;;;;;;;9.65;100.00;100515.31;5113140;28;20544;-75
2022/09/25 03:35:19;;;;;;;7.78;6.00;;;;;;;9.71;100.00;100560.06;5094891;28;20055;-75
2022/09/25 03:37:45;;;;;;;7.82;6.13;;;;;;;9.35;100.00;100488.69;5095162;28;20024;-76
2022/09/25 03:40:11;;;;;;;7.57;6.13;;;;;;;10.08;100.00;100561.19;5095223;28;20568;-75
2022/09/25 03:42:37;;;;;;;8.50;6.22;;;;;;;10.00;100.00;100551.13;5112976;28;20034;-76
2022/09/25 03:45:03;;;;;;;7.50;5.75;;;;;;;10.32;100.00;100564.16;5094171;28;20032;-75
2022/09/25 03:47:28;;;;;;;8.93;6.80;;;;;;;10.09;100.00;100557.78;5112406;28;20508;-76
2022/09/25 03:49:54;;;;;;;11.38;7.18;;;;;;;9.77;100.00;100542.19;5112227;28;20028;-75
2022/09/25 03:52:20;;;;;;;8.00;7.20;;;;;;;9.59;100.00;100546.72;5094638;28;20397;-75
2022/09/25 03:54:46;;;;;;;10.25;7.65;;;;;;;9.31;100.00;100517.50;5094074;28;20039;-76
2022/09/25 03:57:13;;;;;;;8.48;7.53;;;;;;;9.74;100.00;100552.41;5112261;28;20027;-77
2022/09/25 03:59:39;;;;;;;9.32;7.93;;;;;;;9.48;100.00;100491.91;5094355;28;20519;-75
2022/09/25 04:02:04;;;;;;;8.55;7.60;;;;;;;9.60;100.00;100512.03;5093867;28;20035;-75
2022/09/25 04:04:31;;;;;;;8.63;7.25;;;;;;;9.97;100.00;100563.03;5111690;28;20028;-76
2022/09/25 04:06:56;;;;;;;9.13;7.32;;;;;;;9.81;100.00;100566.69;5113687;28;20020;-76
2022/09/25 04:09:22;;;;;;;7.45;6.47;;;;;;;9.47;100.00;100515.59;5116897;28;20031;-76
2022/09/25 04:11:48;;;;;;;7.10;6.40;;;;;;;9.79;100.00;100574.34;5116563;28;20394;-77
2022/09/25 04:14:13;;;;;;;6.88;5.72;;;;;;;9.91;100.00;100579.22;5116761;28;20516;-78
2022/09/25 04:16:39;;;;;;;6.63;5.65;;;;;;;9.65;100.00;100527.19;5116984;28;20091;-75
2022/09/25 04:19:05;;;;;;;6.75;5.90;;;;;;;10.23;100.00;100566.88;5116832;28;20026;-80
2022/09/25 04:21:31;;;;;;;9.30;6.72;;;;;;;9.75;100.00;100514.31;5117106;28;20024;-78
2022/09/25 04:26:40;;;;;;;8.52;6.40;;;;;;;9.90;100.00;100566.56;5115972;28;20504;-78
2022/09/25 04:29:06;;;;;;;7.25;6.00;;;;;;;10.20;100.00;100566.91;5116397;28;20020;-80
2022/09/25 04:31:32;;;;;;;7.82;6.20;;;;;;;9.74;100.00;100511.78;5116770;28;20027;-78
2022/09/25 04:33:57;;;;;;;8.35;6.40;;;;;;;9.84;100.00;100511.63;5098035;28;20043;-79
2022/09/25 04:36:23;;;;;;;7.82;6.60;;;;;;;10.42;100.00;100582.63;5115959;28;20031;-78
2022/09/25 04:38:48;;;;;;;10.05;6.68;;;;;;;10.16;100.00;100582.25;5115671;28;20036;-80
2022/09/25 04:41:18;;;;;;;7.93;6.30;;;;;;;11.35;100.00;100575.69;5098839;28;20027;-78
2022/09/25 04:43:44;;;;;;;8.77;6.80;;;;;;;10.71;100.00;100580.41;5116494;28;20027;-78
2022/09/25 04:46:11;;;;;;;7.07;6.38;;;;;;;10.32;100.00;100525.19;5098350;28;20030;-80
2022/09/25 04:48:37;;;;;;;8.07;6.40;;;;;;;10.74;100.00;100561.69;5097990;28;20118;-78
2022/09/25 04:51:04;;;;;;;7.47;6.30;;;;;;;10.29;100.00;100563.38;5115876;28;20024;-77
2022/09/25 04:53:31;;;;;;;12.00;6.78;;;;;;;9.87;100.00;100498.03;5115756;28;20395;-79
2022/09/25 04:56:01;;;;;;;8.55;6.55;;;;;;;9.93;100.00;100496.22;5097421;28;20084;-79
2022/09/25 04:58:26;;;;;;;7.45;5.68;;;;;;;10.63;100.00;100576.31;5097963;28;20023;-79
2022/09/25 05:00:52;;;;;;;6.40;5.72;;;;;;;10.07;100.00;100529.84;5097799;28;20034;-79
2022/09/25 05:03:17;;;;;;;9.13;5.82;;;;;;;10.68;100.00;100574.53;5115825;28;20050;-80
2022/09/25 05:05:43;;;;;;;8.90;5.85;;;;;;;10.83;100.00;100581.88;5115460;28;20054;-80
2022/09/25 05:08:10;;;;;;;8.50;5.68;;;;;;;10.81;100.00;100586.16;5115479;28;20027;-79
2022/09/25 05:10:38;;;;;;;10.70;5.50;;;;;;;11.45;100.00;100593.31;5115683;28;20045;-78
2022/09/25 05:13:04;;;;;;;6.40;5.30;;;;;;;11.84;100.00;100583.13;5116069;28;20093;-79
2022/09/25 05:15:32;;;;;;;8.02;5.38;;;;;;;12.30;100.00;100584.53;5116353;28;20027;-77
2022/09/25 05:18:12;;;;;;;6.47;5.55;;;;;;;12.18;100.00;100586.50;5115229;28;20020;-79
2022/09/25 05:20:37;;;;;;;5.38;4.85;;;;;;;11.93;100.00;100547.22;5115263;28;20034;-77
2022/09/25 05:23:03;;;;;;;7.55;5.18;;;;;;;12.37;100.00;100570.75;5098159;28;20023;-80
2022/09/25 05:25:30;;;;;;;6.97;5.05;;;;;;;12.80;100.00;100584.88;5115444;28;20032;-79
2022/09/25 05:27:59;;;;;;;5.50;4.90;;;;;;;13.26;100.00;100579.34;5115242;28;20042;-80
2022/09/25 05:30:27;;;;;;;9.40;5.70;;;;;;;12.50;100.00;100514.28;5097007;28;20031;-81
2022/09/25 05:32:53;;;;;;;8.15;5.70;;;;;;;12.90;100.00;100542.06;5096745;28;20035;-80
2022/09/25 05:35:22;;;;;;;7.15;5.63;;;;;;;13.45;100.00;100546.44;5115153;28;20040;-80
2022/09/25 05:37:48;;;;;;;6.38;5.60;;;;;;;13.88;100.00;100591.03;5114982;28;20034;-79
2022/09/25 05:40:15;;;;;;;8.45;5.10;;;;;;;13.54;100.00;100595.53;5114809;28;20099;-78
2022/09/25 05:42:44;;;;;;;6.65;5.05;;;;;;;13.88;100.00;100587.66;5115361;28;20049;-79
2022/09/25 05:45:11;;;;;;;6.57;5.80;;;;;;;13.61;100.00;100565.50;5115003;28;20034;-75
2022/09/25 05:47:37;;;;;;;5.82;5.20;;;;;;;14.12;100.00;100591.16;5096614;28;20031;-76
2022/09/25 05:50:03;;;;;;;8.38;5.53;;;;;;;14.30;100.00;100598.25;5115249;28;20038;-76
2022/09/25 05:52:29;;;;;;;6.70;5.47;;;;;;;14.25;100.00;100598.38;5114599;28;20024;-75
2022/09/25 05:54:55;;;;;;;6.80;5.63;;;;;;;13.88;100.00;100504.13;5115190;28;20027;-76
2022/09/25 05:57:21;;;;;;;5.70;5.13;;;;;;;14.30;100.00;100535.13;5096650;28;20092;-77
2022/09/25 05:59:48;;;;;;;6.95;5.53;;;;;;;14.89;100.00;100550.94;5114689;28;20027;-76
2022/09/25 06:02:14;;;;;;;6.15;5.55;;;;;;;15.20;100.00;100546.34;5096368;28;20500;-74
2022/09/25 06:04:40;;;;;;;6.72;5.60;;;;;;;15.00;100.00;100561.63;5114547;28;20026;-77
2022/09/25 06:07:05;;;;;;;7.47;6.60;;;;;;;15.51;100.00;100593.00;5114224;28;20027;-76
2022/09/25 06:09:30;;;;;;;7.60;5.72;;;;;;;15.86;100.00;100599.34;5114586;28;20027;-75
2022/09/25 06:11:56;;;;;;;8.50;5.45;;;;;;;15.12;100.00;100553.50;5114322;28;20035;-75
2022/09/25 06:14:27;;;;;;;8.00;5.10;;;;;;;15.36;100.00;100583.31;5115230;28;20043;-78
2022/09/25 06:16:53;;;;;;;7.93;5.47;;;;;;;15.59;100.00;100544.00;5114173;28;20099;-76
2022/09/25 06:19:19;;;;;;;8.02;5.50;;;;;;;15.67;100.00;100600.13;5113766;28;20023;-77
2022/09/25 06:21:46;;;;;;;6.35;4.80;;;;;;;15.13;100.00;100547.47;5096072;28;20122;-79
2022/09/25 06:24:12;;;;;;;9.25;5.75;;;;;;;15.60;100.00;100572.16;5096387;28;20402;-76
2022/09/25 06:26:37;;;;;;;6.90;5.57;;;;;;;15.96;100.00;100594.69;5113842;28;20023;-76
2022/09/25 06:29:03;;;;;;;6.40;5.60;;;;;;;15.39;100.00;100603.69;5095578;28;20032;-76
2022/09/25 06:31:28;;;;;;;6.30;5.70;;;;;;;15.79;100.00;100590.22;5114142;28;20054;-75
2022/09/25 06:33:54;;;;;;;7.00;5.57;;;;;;;15.75;100.00;100605.78;5113645;28;20031;-77
2022/09/25 06:36:19;;;;;;;6.38;5.45;;;;;;;16.27;100.00;100582.25;5113158;28;20031;-75
2022/09/25 06:38:45;;;;;;;7.20;5.22;;;;;;;16.36;100.00;100554.47;5095347;28;20064;-76
2022/09/25 06:41:11;;;;;;;6.00;5.40;;;;;;;15.77;100.00;100537.34;5095474;28;20039;-75
2022/09/25 06:43:36;;;;;;;10.10;5.60;;;;;;;16.26;100.00;100540.38;5113373;28;20030;-71
2022/09/25 06:46:02;;;;;;;6.00;5.30;;;;;;;17.03;100.00;100593.53;5113047;28;20055;-74
2022/09/25 06:48:29;;;;;;;6.65;5.55;;;;;;;16.67;100.00;100589.16;5113147;28;20115;-75
2022/09/25 06:50:58;;;;;;;7.53;5.47;;;;;;;16.19;100.00;100538.97;5113429;28;20383;-76
2022/09/25 06:53:24;;;;;;;8.48;6.05;;;;;;;16.93;100.00;100591.41;5095347;28;20118;-75
2022/09/25 06:55:50;;;;;;;9.20;5.90;;;;;;;17.03;100.00;100598.66;5113587;28;20061;-75
2022/09/25 06:58:21;;;;;;;7.07;5.72;;;;;;;17.17;100.00;100539.75;5113371;28;20063;-75
2022/09/25 07:00:48;;;;;;;9.10;5.53;;;;;;;17.98;100.00;100595.94;5095242;28;20409;-75
2022/09/25 07:06:02;;;;;;;8.00;5.88;;;;;;;17.15;100.00;100567.25;5113624;28;20068;-76
2022/09/25 07:08:28;;;;;;;7.65;6.10;;;;;;;17.31;100.00;100596.50;5113742;28;20042;-76
2022/09/25 07:10:55;;;;;;;10.20;5.90;;;;;;;17.20;100.00;100526.78;5113927;28;20031;-78
2022/09/25 07:13:23;;;;;;;8.98;6.32;;;;;;;17.59;100.00;100541.28;5095414;28;20047;-78
2022/09/25 07:15:53;;;;;;;8.05;6.30;;;;;;;16.84;100.00;100535.31;5113466;28;20032;-78
2022/09/25 07:18:20;;;;;;;6.95;5.80;;;;;;;16.83;100.00;100549.06;5113560;28;20030;-78
2022/09/25 07:20:46;;;;;;;8.00;6.18;;;;;;;17.32;100.00;100595.59;5113420;28;20359;-75
2022/09/25 07:23:13;;;;;;;7.78;5.90;;;;;;;18.12;100.00;100558.31;5113912;28;20035;-75
2022/09/25 07:25:39;;;;;;;6.90;6.18;;;;;;;18.05;100.00;100559.53;5112789;28;20035;-75
2022/09/25 07:28:06;;;;;;;9.55;5.80;;;;;;;18.73;100.00;100597.31;5112984;28;20093;-76
2022/09/25 07:30:32;;;;;;;7.05;5.32;;;;;;;19.15;100.00;100598.56;5094505;28;20421;-77
2022/09/25 07:32:57;;;;;;;10.15;6.00;;;;;;;18.99;100.00;100588.22;5112693;28;20035;-75
2022/09/25 07:35:35;;;;;;;10.50;7.75;;;;;;;18.26;100.00;100549.94;5112410;28;20036;-75
2022/09/25 07:38:01;;;;;;;9.38;6.10;;;;;;;18.46;100.00;100601.25;5112892;28;20039;-75
2022/09/25 07:40:27;;;;;;;6.90;5.75;;;;;;;19.07;100.00;100605.84;5112007;28;20464;-74
2022/09/25 07:42:59;;;;;;;7.72;5.05;;;;;;;19.20;100.00;100591.38;5093757;28;20406;-75
2022/09/25 07:45:25;;;;;;;5.68;4.47;;;;;;;19.16;100.00;100564.94;5094678;28;20031;-75
2022/09/25 07:47:55;;;;;;;7.13;4.60;;;;;;;19.18;100.00;100594.06;5112572;28;20566;-75
2022/09/25 07:50:21;;;;;;;7.50;4.15;;;;;;;19.05;100.00;100536.34;5112857;28;20039;-75
2022/09/25 07:52:46;;;;;;;4.72;4.32;;;;;;;18.94;100.00;100548.97;5094059;28;20414;-75
2022/09/25 07:55:12;;;;;;;5.03;4.55;;;;;;;20.08;100.00;100582.19;5112273;28;20039;-75
2022/09/25 07:57:37;;;;;;;6.40;4.35;;;;;;;20.22;100.00;100574.50;5112416;28;20038;-75
2022/09/25 08:00:04;;;;;;;5.40;4.32;;;;;;;19.41;100.00;100573.03;5111852;28;20044;-73
2022/09/25 08:02:30;;;;;;;4.97;4.40;;;;;;;19.10;100.00;100572.16;5111859;28;20447;-74
2022/09/25 08:04:55;;;;;;;5.53;4.03;;;;;;;20.04;100.00;100505.81;5112579;28;20027;-75
2022/09/25 08:07:21;;;;;;;7.03;4.32;;;;;;;20.05;100.00;100562.53;5111874;28;20028;-74
2022/09/25 08:09:46;;;;;;;5.32;4.35;;;;;;;18.84;100.00;100512.53;5111939;28;20027;-75
2022/09/25 08:12:12;;;;;;;7.25;4.25;;;;;;;20.36;100.00;100556.44;5112093;28;20035;-75
2022/09/25 08:14:37;;;;;;;4.65;4.25;;;;;;;20.64;95.39;100554.69;5094752;28;20061;-75
2022/09/25 08:17:03;;;;;;;4.68;4.10;;;;;;;19.80;100.00;100565.69;5094894;28;20032;-76
2022/09/25 08:19:36;;;;;;;4.63;4.20;;;;;;;19.66;100.00;100559.63;5112576;28;20019;-75
2022/09/25 08:22:02;;;;;;;9.30;4.53;;;;;;;20.85;100.00;100562.94;5112434;28;20062;-75
2022/09/25 08:24:27;;;;;;;4.78;4.18;;;;;;;21.00;99.03;100536.13;5111774;28;20059;-75
2022/09/25 08:26:53;;;;;;;5.68;4.43;;;;;;;21.07;97.77;100558.16;5112285;28;20490;-74
2022/09/25 08:29:18;;;;;;;8.98;4.80;;;;;;;20.95;91.72;100553.69;5093757;28;20035;-75
2022/09/25 08:31:44;;;;;;;8.35;4.57;;;;;;;19.81;95.43;100500.22;5111843;28;20032;-75
2022/09/25 08:34:09;;;;;;;15.00;9.55;;;;;;;21.00;93.78;100554.22;5093471;28;20020;-77
2022/09/25 08:36:35;;;;;;;5.35;4.68;;;;;;;21.31;91.42;100554.00;5111092;28;20180;-75
2022/09/25 08:39:00;;;;;;;10.77;7.82;;;;;;;21.49;88.27;100562.38;5111209;28;20039;-77
2022/09/25 08:41:32;;;;;;;7.82;5.50;;;;;;;21.29;90.83;100562.81;5112053;28;20521;-74
2022/09/25 08:44:08;;;;;;;;;;;;;;;21.38;91.71;100557.88;5112218;28;20023;-74
2022/09/25 08:49:29;;;;;;;8.13;4.32;;;;;;;21.67;81.59;100460.22;5111703;28;20529;-76
2022/09/25 08:52:00;;;;;;;5.45;4.80;;;;;;;21.75;91.67;100553.75;5111605;28;20038;-74
2022/09/25 08:54:28;;;;;;;;;;;;;;;22.20;83.94;100553.38;5115728;28;20028;-74
2022/09/25 08:57:35;;;;;;;7.32;4.10;;;;;;;21.54;84.24;100545.63;5115872;28;19965;-74
2022/09/25 09:00:13;;;;;;;5.25;3.50;;;;;;;22.33;78.73;100546.44;5115448;28;20032;-75
2022/09/25 09:02:46;;;;;;;8.02;4.43;;;;;;;22.36;87.37;100550.59;5115490;28;20043;-74
2022/09/25 09:05:23;;;;;;;6.75;4.63;;;;;;;23.13;77.02;100521.88;5114962;28;20474;-74
2022/09/25 09:08:17;;;;;;;12.50;6.70;;;;;;;22.56;81.03;100542.25;5115663;28;20027;-74
2022/09/25 09:10:45;;;;;;;10.20;8.93;;;;;;;22.41;81.52;100514.81;5102821;28;20044;-75
2022/09/25 09:13:34;;;;;;;5.70;4.82;;;;;;;22.05;83.18;100487.03;5115900;28;20516;-74
2022/09/25 09:16:17;;;;;;;5.50;4.35;;;;;;;22.94;81.63;100508.53;5115413;28;20035;-78
2022/09/25 09:18:43;;;;;;;5.35;4.38;;;;;;;22.92;80.31;100516.41;5115483;28;20032;-74
2022/09/25 09:21:31;;;;;;;6.47;4.65;;;;;;;22.94;83.20;100511.13;5096871;28;20027;-75
2022/09/25 09:24:35;;;;;;;7.30;4.43;;;;;;;23.31;83.81;100515.41;5114719;28;20035;-75
2022/09/25 09:27:15;;;;;;;8.45;3.75;;;;;;;23.16;77.19;100524.22;5083092;28;20463;-76
2022/09/25 09:29:43;;;;;;;4.10;3.70;;;;;;;22.64;83.95;100521.06;5114826;28;20062;-74
2022/09/25 09:32:33;;;;;;;4.68;3.80;;;;;;;23.16;86.54;100498.28;5096415;28;20035;-74
2022/09/25 09:35:05;;;;;;;7.03;3.90;;;;;;;23.86;78.38;100484.44;5114969;28;20540;-77
2022/09/25 09:37:45;;;;;;;4.20;3.80;;;;;;;22.36;79.12;100489.19;5114290;28;20036;-75
2022/09/25 09:40:34;;;;;;;5.90;4.22;;;;;;;23.85;78.44;100459.38;5114586;28;20077;-76
2022/09/25 09:43:20;;;;;;;6.00;4.03;;;;;;;23.80;73.22;100469.31;5114093;28;20032;-74
2022/09/25 09:46:01;;;;;;;5.22;4.30;;;;;;;23.11;80.91;100400.03;5113967;28;20280;-74
2022/09/25 09:48:35;;;;;;;5.68;4.22;;;;;;;23.22;79.85;100432.97;5095622;28;20041;-75
2022/09/25 09:51:08;;;;;;;5.05;3.88;;;;;;;22.93;73.70;100398.78;5114517;28;20043;-74
2022/09/25 09:53:47;;;;;;;5.03;3.97;;;;;;;23.39;73.58;100450.78;5114543;28;20027;-73
2022/09/25 09:56:18;;;;;;;6.50;3.95;;;;;;;23.30;71.47;100386.50;5113688;28;20027;-73
2022/09/25 09:58:47;;;;;;;6.75;3.83;;;;;;;23.48;70.07;100449.25;5113808;28;20027;-74
2022/09/25 10:01:16;;;;;;;4.10;3.80;;;;;;;23.89;69.67;100398.47;5114083;28;20027;-73
2022/09/25 10:03:44;;;;;;;4.60;3.63;;;;;;;23.36;68.60;100447.56;5113763;28;20841;-75
2022/09/25 10:06:16;;;;;;;4.20;3.83;;;;;;;24.22;66.35;100451.44;5114460;28;20043;-74
2022/09/25 10:08:41;;;;;;;4.30;3.90;;;;;;;24.14;64.00;100388.81;5114281;28;20035;-74
2022/09/25 10:11:15;;;;;;;5.10;3.95;;;;;;;24.40;63.26;100422.25;5096193;28;20028;-74
2022/09/25 10:13:43;;;;;;;4.63;3.88;;;;;;;23.87;64.88;100446.28;5096192;28;20513;-74
2022/09/25 10:16:10;;;;;;;6.82;3.90;;;;;;;24.14;62.75;100451.19;5113975;28;20028;-75
2022/09/25 10:18:47;;;;;;;8.60;4.90;;;;;;;24.44;57.50;100433.25;5113643;28;20031;-74
2022/09/25 10:21:17;;;;;;;4.25;3.63;;;;;;;24.02;60.25;100445.13;5113441;28;20509;-74
2022/09/25 10:23:45;;;;;;;6.78;3.58;;;;;;;23.03;63.98;100443.03;5095600;28;20072;-74
2022/09/25 10:26:37;;;;;;;6.03;3.60;;;;;;;24.99;58.63;100419.31;5095505;28;20696;-75
2022/09/25 10:29:20;;;;;;;;;;;;;;;25.11;57.49;100416.56;5113891;28;20073;-74
2022/09/25 10:31:46;;;;;;;5.47;3.80;;;;;;;24.42;55.95;100381.38;5113488;28;19912;-75
2022/09/25 10:34:11;;;;;;;9.07;3.63;;;;;;;25.42;55.38;100409.69;5094688;28;20247;-75
2022/09/25 10:36:45;;;;;;;5.82;3.67;;;;;;;25.08;55.42;100406.38;5113116;28;20109;-74
2022/09/25 10:39:28;;;;;;;5.13;3.78;;;;;;;23.65;57.52;100361.38;5113529;28;20443;-75
2022/09/25 10:41:54;;;;;;;6.18;4.45;;;;;;;25.34;55.74;100355.59;5113091;28;20077;-75
2022/09/25 10:44:38;;;;;;;5.93;3.88;;;;;;;25.22;55.73;100393.06;5094244;28;20063;-74
2022/09/25 10:50:25;;;;;;;4.75;3.90;;;;;;;23.88;61.29;100394.22;5113002;28;20070;-76
2022/09/25 10:52:58;;;;;;;5.13;3.72;;;;;;;24.55;56.87;100339.59;5094351;28;20026;-73
2022/09/25 10:55:29;;;;;;;5.88;3.90;;;;;;;24.64;57.31;100305.06;5112623;28;20024;-73
2022/09/25 10:58:12;;;;;;;6.97;3.90;;;;;;;25.52;53.46;100372.34;5093961;28;20035;-74
2022/09/25 11:00:52;;;;;;;6.50;3.50;;;;;;;25.46;54.13;100374.63;5112899;28;20394;-74
2022/09/25 11:03:29;;;;;;;5.20;3.80;;;;;;;25.70;53.73;100362.97;5094237;28;20486;-75
2022/09/25 11:05:58;;;;;;;4.80;4.00;;;;;;;25.86;51.77;100359.06;5112232;28;20502;-74
2022/09/25 11:08:28;;;;;;;14.55;7.00;;;;;;;25.63;53.35;100322.75;5093709;28;20130;-74
2022/09/25 11:10:58;;;;;;;5.95;4.10;;;;;;;24.86;55.96;100364.81;5093897;28;20028;-73
2022/09/25 11:13:27;;;;;;;6.93;4.28;;;;;;;25.58;53.67;100353.59;5111933;28;20191;-73
2022/09/25 11:15:59;;;;;;;7.38;4.50;;;;;;;24.65;54.97;100340.50;5111822;28;20188;-73
2022/09/25 11:19:03;;;;;;;5.70;4.05;;;;;;;24.86;54.17;100362.22;5112227;28;20034;-74
2022/09/25 11:21:46;;;;;;;7.40;3.97;;;;;;;25.42;52.52;100314.16;5093703;28;20496;-75
2022/09/25 11:24:29;;;;;;;4.55;4.10;;;;;;;26.08;51.58;100354.53;5112215;28;20122;-74
2022/09/25 11:27:10;;;;;;;8.30;4.65;;;;;;;25.48;51.47;100360.53;5112275;28;20028;-75
2022/09/25 11:30:09;;;;;;;7.35;3.92;;;;;;;25.56;51.22;100292.16;5111821;28;20032;-74
2022/09/25 11:32:57;;;;;;;5.78;4.20;;;;;;;25.38;50.11;100345.75;5112093;28;20089;-77
2022/09/25 11:35:44;;;;;;;8.10;4.13;;;;;;;25.69;49.58;100339.66;5111521;28;20517;-75
2022/09/25 11:41:34;;;;;;;8.52;4.32;;;;;;;25.68;51.40;100325.81;5111614;28;20428;-74
2022/09/25 11:43:59;;;;;;;7.43;3.80;;;;;;;25.95;48.31;100311.38;5111493;28;20027;-72
2022/09/25 11:46:43;;;;;;;7.95;3.80;;;;;;;26.24;48.24;100284.44;5111189;28;20391;-73
2022/09/25 11:49:41;;;;;;;6.22;3.90;;;;;;;25.86;47.88;100297.34;5092717;28;20065;-73
2022/09/25 11:52:35;;;;;;;6.57;3.85;;;;;;;25.78;47.47;100258.09;5037181;28;20036;-72
2022/09/25 11:55:27;;;;;;;6.40;4.00;;;;;;;26.56;46.01;100302.47;5110439;28;20110;-73
2022/09/25 11:58:03;;;;;;;5.57;3.58;;;;;;;26.34;44.96;100302.72;5111195;28;20035;-73